Goldfield, Nevada Weather observations

Data are for observation ending at time listed.
 Day   Time    Ave.   Ave.  Ave.  Vector   Max.   Stn.    Total    Solar   Ave.  
  of    of     Air    Rel.  Wind   Wind    Wind   Baro.  Precip.   Rad.    Soil  
Year   Day     Temp.  Hum.  Speed  Dir.    Gust   Pres.                    Temp. 
2014   (PST)    F      %     mph   deg.    mph     mb.     in.     W/m2     F   
------------------------------------------------------------------------------
 303   11:50   67.7    13   16.0   116     23.8   830.7    0.00     666    55.1
 303   12:00   67.7    13   13.4   105     21.0   830.6    0.00     532    55.3
 303   12:10   68.4    14   13.5   116     19.6   830.4    0.00     535    55.5
 303   12:20   67.9    15   13.1   119     21.0   830.3    0.00     320    55.7
 303   12:30   67.4    15   14.3   127     22.1   830.2    0.00     526    56.0
 303   12:40   68.0    15   14.2   116     22.6   829.9    0.00     479    56.2
 303   12:50   68.4    16   14.1   115     23.4   829.8    0.00     431    56.4
 303   13:00   68.6    16   15.1   117     22.5   829.6    0.00     535    56.6
 303   13:10   69.0    16   15.9   118     24.5   829.5    0.00     582    56.8
 303   13:20   68.5    16   15.9   121     26.4   829.4    0.00     359    57.0
 303   13:30   68.4    16   14.4   110     23.5   829.3    0.00     510    57.2
 303   13:40   69.3    15   15.5   110     24.0   829.2    0.00     500    57.4
 303   13:50   68.6    16   15.7   105     26.5   829.2    0.00     264    57.6
 303   14:00   68.2    17   14.7   115     24.4   829.2    0.00     361    57.8
 303   14:10   68.4    16   14.6   107     22.9   829.1    0.00     329    58.0
 303   14:20   68.1    17   14.9   108     22.1   829.1    0.00     196    58.2
 303   14:30   67.5    17   15.5   111     23.5   829.0    0.00     221    58.4
 303   14:40   67.9    17   13.9   112     21.4   828.9    0.00     245    58.5
 303   14:50   67.8    17   14.6   103     23.4   828.7    0.00     180    58.6
 303   15:00   67.5    17   15.6   103     22.9   828.7    0.00     179    58.8
 303   15:10   67.8    17   14.6   110     23.7   828.7    0.00     203    58.9
 303   15:20   68.1    17   14.9   110     24.1   828.7    0.00     287    58.9
 303   15:30   68.3    17   14.5   116     23.0   828.5    0.00     188    59.1
 303   15:40   67.6    17   14.9   121     25.1   828.4    0.00     107    59.1
 303   15:50   66.9    18   15.5   112     25.7   828.3    0.00      93    59.3
 303   16:00   66.4    18   15.0   101     23.1   828.2    0.00      70    59.3
 303   16:10   66.0    19   15.1   106     23.8   828.1    0.00      58    59.4
 303   16:20   65.6    18   15.1   110     23.7   828.1    0.00      52    59.4
 303   16:30   65.1    18   15.1   107     25.2   828.2    0.00      28    59.5
 303   16:40   64.7    19   10.8   114     19.6   828.4    0.00      19    59.5
 303   16:50   64.4    19   11.9   119     19.0   828.4    0.00      11    59.5
 303   17:00   63.9    20   10.6   116     18.9   828.4    0.00       4    59.5
 303   17:10   63.2    20   10.4   117     16.0   828.4    0.00       0    59.5
 303   17:20   63.1    20   13.1   113     18.9   828.4    0.00       0    59.5
 303   17:30   62.6    20   11.2   113     20.9   828.4    0.00       0    59.5
 303   17:40   62.1    21   12.0   118     18.6   828.3    0.00       0    59.4
 303   17:50   61.9    21   12.8   124     19.5   828.2    0.00       0    59.4
 303   18:00   61.7    21   12.9   124     18.5   828.2    0.00       0    59.3
 303   18:10   61.5    22   13.8   130     19.5   828.2    0.00       0    59.3
 303   18:20   61.3    22   14.3   134     21.3   828.2    0.00       0    59.3
 303   18:30   61.2    22   15.6   134     23.3   828.1    0.00       0    59.2
 303   18:40   60.9    22   15.7   137     22.7   828.0    0.00       0    59.2
 303   18:50   60.9    22   17.8   133     26.9   827.9    0.00       0    59.1
 303   19:00   60.8    22   17.6   129     25.6   827.8    0.00       0    59.1
 303   19:10   60.7    22   17.2   132     25.4   827.9    0.00       0    59.0
 303   19:20   60.6    22   15.0   132     24.8   828.1    0.00       0    59.0
 303   19:30   60.4    22   11.6   127     17.8   828.1    0.00       0    58.9
 303   19:40   60.0    23   11.1   123     16.7   828.1    0.00       0    58.9
 303   19:50   59.5    23   10.7   121     17.4   828.0    0.00       0    58.9
 303   20:00   59.5    23   10.9   120     16.2   827.9    0.00       0    58.8
 303   20:10   59.1    23   10.4   119     16.1   827.9    0.00       0    58.7
 303   20:20   58.7    24   10.6   123     19.2   827.8    0.00       0    58.7
 303   20:30   58.5    24   10.1   125     15.9   827.8    0.00       0    58.7
 303   20:40   58.3    24   11.3   130     17.1   827.8    0.00       0    58.6
 303   20:50   58.2    24   11.1   124     17.6   827.7    0.00       0    58.5
 303   21:00   58.1    24   12.2   128     18.9   827.7    0.00       0    58.5
 303   21:10   58.2    24   12.5   124     18.6   827.7    0.00       0    58.5
 303   21:20   57.9    24   12.9   122     19.4   827.7    0.00       0    58.4
 303   21:30   58.0    24   14.1   122     20.8   827.6    0.00       0    58.4
 303   21:40   57.4    24   12.9   120     19.6   827.4    0.00       0    58.3
 303   21:50   57.5    24   14.2   121     21.5   827.5    0.00       0    58.3
 303   22:00   57.4    24   14.3   120     20.8   827.5    0.00       0    58.2
 303   22:10   57.0    24   14.5   116     22.4   827.5    0.00       0    58.2
 303   22:20   56.8    25   12.8   117     19.3   827.5    0.00       0    58.1
 303   22:30   56.6    25   12.1   117     18.3   827.4    0.00       0    58.0
 303   22:40   56.4    25   11.9   116     17.0   827.4    0.00       0    58.0
 303   22:50   56.2    25   11.8   118     18.0   827.4    0.00       0    57.9
 303   23:00   56.2    25   10.9   117     18.0   827.5    0.00       0    57.8
 303   23:10   56.4    24   11.5   120     17.0   827.5    0.00       0    57.8
 303   23:20   56.3    25   10.6   115     15.4   827.5    0.00       0    57.7
 303   23:30   56.2    25   11.5   118     18.9   827.3    0.00       0    57.7
 303   23:40   56.1    24   12.6   121     17.9   827.2    0.00       0    57.7
 303   23:50   56.3    24   16.3   126     24.5   827.0    0.00       0    57.6
 304    0:00   56.4    24   16.7   129     23.9   826.8    0.00       0    57.5
 304    0:10   56.4    24   17.2   129     25.3   826.7    0.00       0    57.5
 304    0:20   56.1    24   17.6   126     26.7   826.6    0.00       0    57.3
 304    0:30   55.5    25   16.6   124     25.1   826.7    0.00       0    57.4
 304    0:40   55.4    25   15.4   123     21.6   826.7    0.00       0    57.3
 304    0:50   55.0    25   14.2   123     20.4   826.7    0.00       0    57.3
 304    1:00   54.5    26   13.9   121     20.3   826.6    0.00       0    57.2
 304    1:10   54.8    26   14.6   122     22.2   826.5    0.00       0    57.1
 304    1:20   54.7    26   14.1   122     21.1   826.5    0.00       0    57.1
 304    1:30   53.9    26   14.0   120     22.6   826.3    0.00       0    56.9
 304    1:40   53.5    27   14.5   121     21.2   826.1    0.00       0    56.9
 304    1:50   53.4    27   15.6   123     23.8   826.0    0.00       0    56.8
 304    2:00   53.6    27   15.4   126     23.4   826.0    0.00       0    56.8
 304    2:10   53.5    27   15.1   128     20.9   825.9    0.00       0    56.8
 304    2:20   52.8    28   13.1   126     20.1   825.9    0.00       0    56.6
 304    2:30   52.4    28   13.1   133     20.3   826.1    0.00       0    56.5
 304    2:40   52.0    29   10.8   134     15.6   826.1    0.00       0    56.4
 304    2:50   52.0    28   11.9   131     16.4   826.0    0.00       0    56.4
 304    3:00   52.3    28   11.0   130     17.0   826.0    0.00       0    56.3
 304    3:10   52.6    28   12.5   127     18.4   825.9    0.00       0    56.2
 304    3:20   52.1    29   11.1   116     18.6   825.8    0.00       0    56.0
 304    3:30   51.7    29   12.6   123     18.3   825.6    0.00       0    56.0
 304    3:40   52.0    28   13.4   131     19.0   825.6    0.00       0    56.0
 304    3:50   52.4    28   15.1   135     22.9   825.6    0.00       0    55.9
 304    4:00   52.1    28   13.2   136     19.1   825.6    0.00       0    55.8
 304    4:10   51.5    29   12.4   134     17.0   825.6    0.00       0    55.7
 304    4:20   51.5    29   11.2   144     16.5   825.7    0.00       0    55.7
 304    4:30   50.8    30   10.5   156     15.1   825.7    0.00       0    55.7
 304    4:40   50.6    30   10.0   154     14.0   825.7    0.00       0    55.5
 304    4:50   50.9    30   11.2   152     16.3   825.6    0.00       0    55.4
 304    5:00   51.0    30   11.2   153     16.4   825.6    0.00       0    55.4
 304    5:10   50.8    30   10.9   157     15.2   825.5    0.00       0    55.3
 304    5:20   49.7    31   11.7   169     16.7   825.6    0.00       0    55.2
 304    5:30   49.3    32   11.5   165     17.4   825.5    0.00       0    55.2
 304    5:40   49.5    32   10.4   157     15.6   825.5    0.00       0    55.0
 304    5:50   49.7    32   12.7   157     19.9   825.5    0.00       0    54.9
 304    6:00   50.5    31   15.0   144     21.9   825.3    0.00       0    54.9
 304    6:10   51.3    31   16.5   139     27.1   825.2    0.00       0    54.9
 304    6:20   51.6    31   18.0   137     27.4   825.1    0.00       5    54.7
 304    6:30   51.7    31   17.6   139     26.4   825.2    0.00      11    54.7
 304    6:40   52.2    30   18.0   137     26.5   825.2    0.00      39    54.5
 304    6:50   52.4    30   17.9   138     28.1   825.3    0.00      55    54.4
 304    7:00   51.8    31   14.8   144     21.0   825.3    0.00     100    54.4
 304    7:10   52.1    31   14.6   141     23.1   825.4    0.00     143    54.5
 304    7:20   52.4    30   17.4   135     26.9   825.5    0.00     177    54.4
 304    7:30   53.0    30   13.4   139     19.2   825.7    0.00     234    54.4
 304    7:40   53.6    30   16.7   132     23.9   825.8    0.00     290    54.4
 304    7:50   54.3    29   18.2   128     24.5   825.7    0.00     347    54.4
 304    8:00   54.7    28   17.1   127     23.3   825.7    0.00     309    54.4
 304    8:10   54.9    29   17.6   127     26.7   825.8    0.00     319    54.5
 304    8:20   55.3    29   17.6   120     24.7   825.8    0.00     335    54.4
 304    8:30   55.5    28   17.2   119     24.9   825.8    0.00     350    54.7
 304    8:40   55.7    28   16.7   116     25.6   825.7    0.00     277    54.7
 304    8:50   56.0    28   15.2   115     22.9   825.6    0.00     355    54.8
 304    9:00   56.1    28   18.1   117     27.2   825.4    0.00     341    54.8
 304    9:10   55.9    28   19.8   120     27.8   825.3    0.00     308    54.9
 304    9:20   56.0    28   20.1   120     29.8   825.3    0.00     354    54.9
 304    9:30   56.2    28   19.5   122     29.7   825.3    0.00     405    55.0
 304    9:40   56.8    27   18.7   119     26.8   825.3    0.00     423    55.1
 304    9:50   56.9    27   18.6   119     26.6   825.3    0.00     393    55.2
 304   10:00   57.1    27   20.0   122     29.1   825.2    0.00     436    55.4
 304   10:10   57.3    27   20.1   119     31.5   825.1    0.00     422    55.5
 304   10:20   57.8    27   19.6   118     28.8   825.0    0.00     466    55.5
 304   10:30   58.2    26   21.3   124     29.5   824.9    0.00     428    55.7
 304   10:40   58.2    27   21.0   119     32.3   824.8    0.00     405    55.8
 304   10:50   58.9    26   17.8   116     27.0   824.8    0.00     457    55.9
 304   11:00   59.6    25   20.9   122     30.4   824.6    0.00     497    56.1
 304   11:10   60.0    25   19.3   115     31.5   824.4    0.00     453    56.2
 304   11:20   60.0    25   19.7   112     29.1   824.2    0.00     428    56.3
 304   11:30   60.3    24   17.8   110     26.1   824.1    0.00     405    56.4
 304   11:40   60.3    24   20.0   122     29.8   824.0    0.00     424    56.5

Return to Goldfield, Nevada graphs page.


Western Regional Climate Center,wrcc@dri.edu